createdAt,value
2022-09-17T04:00:34.584Z,78.27
2022-09-17T04:01:34.578Z,78.17
2022-09-17T04:02:34.583Z,78.58
2022-09-17T04:03:34.428Z,78.07
2022-09-17T04:04:34.396Z,78.48
2022-09-17T04:05:34.373Z,78.48
2022-09-17T04:06:34.363Z,78.17
2022-09-17T04:07:34.356Z,79.09
2022-09-17T04:08:34.360Z,78.38
2022-09-17T04:09:35.417Z,77.76
2022-09-17T04:10:34.319Z,77.86
2022-09-17T04:11:39.330Z,79.19
2022-09-17T04:12:34.295Z,78.48
2022-09-17T04:13:34.303Z,78.27
2022-09-17T04:14:34.295Z,78.27
2022-09-17T04:15:34.262Z,78.20
2022-09-17T04:16:34.413Z,78.92
2022-09-17T04:17:34.242Z,78.58
2022-09-17T04:18:34.236Z,78.72
2022-09-17T04:19:34.226Z,79.53
2022-09-17T04:20:34.238Z,79.23
2022-09-17T04:21:34.193Z,79.84
2022-09-17T04:22:39.200Z,79.53
2022-09-17T04:23:34.183Z,78.48
2022-09-17T04:24:34.157Z,79.80
2022-09-17T04:25:34.148Z,78.99
2022-09-17T04:26:34.131Z,78.27
2022-09-17T04:27:34.127Z,78.17
2022-09-17T04:28:34.156Z,78.48
2022-09-17T04:29:34.100Z,78.58
2022-09-17T04:30:34.114Z,78.82
2022-09-17T04:31:34.144Z,78.61
2022-09-17T04:32:34.188Z,79.13
2022-09-17T04:33:39.090Z,79.02
2022-09-17T04:34:34.042Z,79.13
2022-09-17T04:35:34.034Z,79.94
2022-09-17T04:36:34.034Z,78.72
2022-09-17T04:37:34.012Z,79.64
2022-09-17T04:38:34.006Z,79.23
2022-09-17T04:39:33.987Z,79.06
2022-09-17T04:40:34.144Z,79.84
2022-09-17T04:41:33.983Z,79.64
2022-09-17T04:42:33.950Z,79.33
2022-09-17T04:43:33.992Z,78.41
2022-09-17T04:44:38.949Z,78.41
2022-09-17T04:45:33.927Z,78.61
2022-09-17T04:46:33.954Z,78.68
2022-09-17T04:47:33.904Z,78.38
2022-09-17T04:48:34.021Z,78.27
2022-09-17T04:49:33.871Z,78.27
2022-09-17T04:50:33.860Z,78.27
2022-09-17T04:51:33.848Z,78.20
2022-09-17T04:52:33.837Z,78.99
2022-09-17T04:53:33.851Z,78.48
2022-09-17T04:54:33.817Z,78.17
2022-09-17T04:55:38.826Z,78.38
2022-09-17T04:56:33.793Z,78.48
2022-09-17T04:57:33.783Z,78.68
2022-09-17T04:58:33.779Z,79.29
2022-09-17T04:59:33.789Z,79.29
2022-09-17T05:00:33.780Z,79.60
2022-09-17T05:01:33.738Z,78.88
2022-09-17T05:02:33.767Z,78.88
2022-09-17T05:03:33.738Z,79.39
2022-09-17T05:04:33.827Z,79.50
2022-09-17T05:05:33.690Z,79.50
2022-09-17T05:06:38.700Z,78.75
2022-09-17T05:07:33.686Z,79.25
2022-09-17T05:08:33.669Z,79.46
2022-09-17T05:09:33.646Z,79.57
2022-09-17T05:10:33.632Z,79.25
2022-09-17T05:11:33.628Z,79.25
2022-09-17T05:12:34.575Z,78.85
2022-09-17T05:13:33.614Z,78.54
2022-09-17T05:14:33.587Z,78.34
2022-09-17T05:15:33.601Z,78.17
2022-09-17T05:16:33.631Z,79.09
2022-09-17T05:17:38.576Z,78.58
2022-09-17T05:18:33.565Z,77.97
2022-09-17T05:19:33.532Z,78.03
2022-09-17T05:20:33.641Z,78.03
2022-09-17T05:21:33.514Z,77.52
2022-09-17T05:22:33.510Z,77.93
2022-09-17T05:23:33.497Z,77.93
2022-09-17T05:24:33.476Z,77.83
2022-09-17T05:25:33.475Z,77.72
2022-09-17T05:26:33.458Z,77.22
2022-09-17T05:27:33.466Z,77.31
2022-09-17T05:28:38.503Z,77.31
2022-09-17T05:29:33.419Z,77.72
2022-09-17T05:30:33.410Z,77.11
2022-09-17T05:31:33.468Z,77.52
2022-09-17T05:32:33.384Z,77.62
2022-09-17T05:33:33.391Z,77.72
2022-09-17T05:34:33.360Z,77.22
2022-09-17T05:35:33.349Z,77.59
2022-09-17T05:36:33.451Z,77.18
2022-09-17T05:37:33.337Z,77.01
2022-09-17T05:38:33.333Z,77.62
2022-09-17T05:39:38.328Z,77.83
2022-09-17T05:40:33.367Z,77.83
2022-09-17T05:41:33.283Z,77.52
2022-09-17T05:42:33.268Z,77.83
2022-09-17T05:43:33.278Z,77.52
2022-09-17T05:44:33.247Z,77.62
2022-09-17T05:45:33.235Z,77.59
2022-09-17T05:46:33.271Z,77.93
2022-09-17T05:47:33.215Z,78.13
2022-09-17T05:48:33.215Z,77.72
2022-09-17T05:49:33.196Z,78.03
2022-09-17T05:50:38.210Z,77.62
2022-09-17T05:51:33.172Z,77.38
2022-09-17T05:52:33.277Z,78.09
2022-09-17T05:53:33.174Z,77.79
2022-09-17T05:54:33.139Z,78.00
2022-09-17T05:55:33.124Z,77.28
2022-09-17T05:56:33.113Z,77.79
2022-09-17T05:57:33.100Z,78.20
2022-09-17T05:58:33.111Z,78.20
2022-09-17T05:59:33.080Z,77.59
2022-09-17T06:00:33.070Z,77.34
2022-09-17T06:01:38.147Z,77.79
2022-09-17T06:02:33.103Z,77.55
2022-09-17T06:03:33.044Z,76.84
2022-09-17T06:04:35.102Z,77.45
2022-09-17T06:05:33.041Z,77.34
2022-09-17T06:06:33.021Z,77.04
2022-09-17T06:07:33.052Z,77.04
2022-09-17T06:08:33.117Z,77.04
2022-09-17T06:09:32.967Z,76.93
2022-09-17T06:10:33.033Z,77.14
2022-09-17T06:11:32.954Z,76.93
2022-09-17T06:12:37.952Z,77.25
2022-09-17T06:13:32.994Z,77.59
2022-09-17T06:14:32.915Z,77.48
2022-09-17T06:15:32.918Z,77.14
2022-09-17T06:16:32.968Z,76.87
2022-09-17T06:17:32.874Z,76.84
2022-09-17T06:18:32.869Z,77.25
2022-09-17T06:19:32.860Z,76.73
2022-09-17T06:20:32.838Z,76.84
2022-09-17T06:21:32.834Z,77.55
2022-09-17T06:22:32.820Z,77.04
2022-09-17T06:23:37.967Z,77.14
2022-09-17T06:24:32.793Z,77.11
2022-09-17T06:25:32.828Z,76.90
2022-09-17T06:26:32.770Z,76.80
2022-09-17T06:27:32.766Z,76.90
2022-09-17T06:28:32.778Z,76.90
2022-09-17T06:29:32.739Z,76.39
2022-09-17T06:30:32.725Z,76.19
2022-09-17T06:31:32.741Z,76.09
2022-09-17T06:32:32.704Z,76.09
2022-09-17T06:33:32.694Z,76.39
2022-09-17T06:34:37.717Z,76.12
2022-09-17T06:35:32.678Z,77.11
2022-09-17T06:36:32.668Z,76.50
2022-09-17T06:37:32.653Z,75.88
2022-09-17T06:38:32.660Z,76.19
2022-09-17T06:39:32.742Z,75.98
2022-09-17T06:40:32.722Z,76.50
2022-09-17T06:41:32.618Z,75.98
2022-09-17T06:42:32.603Z,76.09
2022-09-17T06:43:32.611Z,76.29
2022-09-17T06:44:32.584Z,76.09
2022-09-17T06:45:37.591Z,76.09
2022-09-17T06:46:32.631Z,75.74
2022-09-17T06:47:32.534Z,76.29
2022-09-17T06:48:32.538Z,75.57
2022-09-17T06:49:32.511Z,76.29
2022-09-17T06:50:32.504Z,76.05
2022-09-17T06:51:32.491Z,75.98
2022-09-17T06:52:32.479Z,76.50
2022-09-17T06:53:32.485Z,75.64
2022-09-17T06:54:32.452Z,75.64
2022-09-17T06:55:32.565Z,75.68
2022-09-17T06:56:37.464Z,76.09
2022-09-17T06:57:32.423Z,75.37
2022-09-17T06:58:32.417Z,75.68
2022-09-17T06:59:32.410Z,76.29
2022-09-17T07:00:32.386Z,75.78
2022-09-17T07:01:32.401Z,75.68
2022-09-17T07:02:32.414Z,76.50
2022-09-17T07:03:32.366Z,75.78
2022-09-17T07:04:32.352Z,75.34
2022-09-17T07:05:32.330Z,74.93
2022-09-17T07:06:32.346Z,74.49
2022-09-17T07:07:37.330Z,74.62
2022-09-17T07:08:32.301Z,74.38
2022-09-17T07:09:32.298Z,74.58
2022-09-17T07:10:32.276Z,74.08
2022-09-17T07:11:32.413Z,74.49
2022-09-17T07:12:32.271Z,73.97
2022-09-17T07:13:32.245Z,73.97
2022-09-17T07:14:32.237Z,74.08
2022-09-17T07:15:32.223Z,74.04
2022-09-17T07:16:32.270Z,73.74
2022-09-17T07:17:32.192Z,73.77
2022-09-17T07:18:37.205Z,73.74
2022-09-17T07:19:32.183Z,73.26
2022-09-17T07:20:32.169Z,72.62
2022-09-17T07:21:32.149Z,73.33
2022-09-17T07:22:32.139Z,74.25
2022-09-17T07:23:32.126Z,74.04
2022-09-17T07:24:33.099Z,73.40
2022-09-17T07:25:32.236Z,73.23
2022-09-17T07:26:32.095Z,73.13
2022-09-17T07:27:32.196Z,73.13
2022-09-17T07:28:32.072Z,72.62
2022-09-17T07:29:37.090Z,72.62
2022-09-17T07:30:32.157Z,72.62
2022-09-17T07:31:32.090Z,72.52
2022-09-17T07:32:32.031Z,72.72
2022-09-17T07:33:32.014Z,72.99
2022-09-17T07:34:32.021Z,72.38
2022-09-17T07:35:32.117Z,72.69
2022-09-17T07:36:31.976Z,72.34
2022-09-17T07:37:31.964Z,72.34
2022-09-17T07:38:31.953Z,72.04
2022-09-17T07:39:31.959Z,70.99
2022-09-17T07:40:37.054Z,70.99
2022-09-17T07:41:31.917Z,71.19
2022-09-17T07:42:31.908Z,70.28
2022-09-17T07:43:32.018Z,70.55
2022-09-17T07:44:31.897Z,69.64
2022-09-17T07:45:31.874Z,69.30
2022-09-17T07:46:31.921Z,69.13
2022-09-17T07:47:31.852Z,68.38
2022-09-17T07:48:31.846Z,68.15
2022-09-17T07:49:31.844Z,67.74
2022-09-17T07:50:31.863Z,68.89
2022-09-17T07:51:36.826Z,67.94
2022-09-17T07:52:31.799Z,67.41
2022-09-17T07:53:31.784Z,67.71
2022-09-17T07:54:31.794Z,66.60
2022-09-17T07:55:31.818Z,67.61
2022-09-17T07:56:31.796Z,67.00
2022-09-17T07:57:31.741Z,67.61
2022-09-17T07:58:31.746Z,67.50
2022-09-17T07:59:31.851Z,67.91
2022-09-17T08:00:31.724Z,67.44
2022-09-17T08:01:32.712Z,67.94
2022-09-17T08:02:36.808Z,67.94
2022-09-17T08:03:31.711Z,68.59
2022-09-17T08:04:31.671Z,68.35
2022-09-17T08:05:31.650Z,68.59
2022-09-17T08:06:31.665Z,69.81
2022-09-17T08:07:31.620Z,69.50
2022-09-17T08:08:31.614Z,69.50
2022-09-17T08:09:31.680Z,70.72
2022-09-17T08:10:31.586Z,69.78
2022-09-17T08:11:54.390Z,70.11
2022-09-17T08:12:32.562Z,69.37
2022-09-17T08:13:36.670Z,69.64
2022-09-17T08:14:31.574Z,68.66
2022-09-17T08:15:31.650Z,68.25
2022-09-17T08:16:31.683Z,68.42
2022-09-17T08:17:31.507Z,67.50
2022-09-17T08:18:31.562Z,67.50
2022-09-17T08:19:31.491Z,67.30
2022-09-17T08:20:31.476Z,68.22
2022-09-17T08:21:31.534Z,68.05
2022-09-17T08:22:31.467Z,68.45
2022-09-17T08:23:31.700Z,68.76
2022-09-17T08:24:36.462Z,68.32
2022-09-17T08:25:31.413Z,68.42
2022-09-17T08:26:31.407Z,68.22
2022-09-17T08:27:31.395Z,68.62
2022-09-17T08:28:31.410Z,68.15
2022-09-17T08:29:35.074Z,68.76
2022-09-17T08:30:31.358Z,68.55
2022-09-17T08:31:31.567Z,69.09
2022-09-17T08:32:31.333Z,69.50
2022-09-17T08:33:31.374Z,69.20
2022-09-17T08:34:31.330Z,69.91
2022-09-17T08:35:36.355Z,69.70
2022-09-17T08:36:31.288Z,69.30
2022-09-17T08:37:31.277Z,69.67
2022-09-17T08:38:35.696Z,69.17
2022-09-17T08:39:32.642Z,69.06
2022-09-17T08:40:31.319Z,68.52
2022-09-17T08:41:31.229Z,68.42
2022-09-17T08:42:31.220Z,68.25
2022-09-17T08:43:31.205Z,68.12
2022-09-17T08:44:31.206Z,67.91
2022-09-17T08:45:31.191Z,68.32
2022-09-17T08:46:36.406Z,68.32
2022-09-17T08:47:31.197Z,68.01
2022-09-17T08:48:31.155Z,68.15
2022-09-17T08:49:31.137Z,68.15
2022-09-17T08:50:31.139Z,68.05
2022-09-17T08:51:31.133Z,67.64
2022-09-17T08:52:31.130Z,68.05
2022-09-17T08:53:31.091Z,67.50
2022-09-17T08:54:31.090Z,67.10
2022-09-17T08:55:31.103Z,66.49
2022-09-17T08:56:31.059Z,66.93
2022-09-17T08:57:36.082Z,66.29
2022-09-17T08:58:31.032Z,65.37
2022-09-17T08:59:31.027Z,66.29
2022-09-17T09:00:31.020Z,66.36
2022-09-17T09:01:31.062Z,65.55
2022-09-17T09:02:31.304Z,64.43
2022-09-17T09:03:30.985Z,64.53
2022-09-17T09:04:30.962Z,64.94
2022-09-17T09:05:30.963Z,64.64
2022-09-17T09:06:30.949Z,64.64
2022-09-17T09:07:31.057Z,64.84
2022-09-17T09:08:35.941Z,64.53
2022-09-17T09:09:30.901Z,65.75
2022-09-17T09:10:30.905Z,64.53
2022-09-17T09:11:30.881Z,65.75
2022-09-17T09:12:30.936Z,65.24
2022-09-17T09:13:30.948Z,65.78
2022-09-17T09:14:30.864Z,64.64
2022-09-17T09:15:30.881Z,64.64
2022-09-17T09:16:30.945Z,65.14
2022-09-17T09:17:30.825Z,66.26
2022-09-17T09:18:30.918Z,65.72
2022-09-17T09:19:35.811Z,64.70
2022-09-17T09:20:30.798Z,64.81
2022-09-17T09:21:30.773Z,64.88
2022-09-17T09:22:30.757Z,64.30
2022-09-17T09:23:30.739Z,64.70
2022-09-17T09:24:30.729Z,64.84
2022-09-17T09:25:30.755Z,63.21
2022-09-17T09:26:30.709Z,63.11
2022-09-17T09:27:30.711Z,62.81
2022-09-17T09:28:30.690Z,63.42
2022-09-17T09:29:30.669Z,62.91
2022-09-17T09:30:35.696Z,63.24
2022-09-17T09:31:30.708Z,62.91
2022-09-17T09:32:30.698Z,60.95
2022-09-17T09:33:30.623Z,59.70
2022-09-17T09:34:30.732Z,59.61
2022-09-17T09:35:30.601Z,60.39
2022-09-17T09:36:30.605Z,59.27
2022-09-17T09:37:30.579Z,60.06
2022-09-17T09:38:30.578Z,60.08
2022-09-17T09:39:33.339Z,59.07
2022-09-17T09:40:31.762Z,59.14
2022-09-17T09:41:35.565Z,59.01
2022-09-17T09:42:30.606Z,58.31
2022-09-17T09:43:52.670Z,58.61
2022-09-17T09:44:31.499Z,58.41
2022-09-17T09:45:30.491Z,57.73
2022-09-17T09:46:30.686Z,57.53
2022-09-17T09:47:30.469Z,57.93
2022-09-17T09:48:30.455Z,57.93
2022-09-17T09:49:30.456Z,56.92
2022-09-17T09:50:43.195Z,57.12
2022-09-17T09:51:31.507Z,56.41
2022-09-17T09:52:35.431Z,57.12
2022-09-17T09:53:30.410Z,56.92
2022-09-17T09:54:30.444Z,57.50
2022-09-17T09:55:30.424Z,57.02
2022-09-17T09:56:30.382Z,56.82
2022-09-17T09:57:30.353Z,55.07
2022-09-17T09:58:30.346Z,55.37
2022-09-17T09:59:30.345Z,55.57
2022-09-17T10:00:30.326Z,55.98
2022-09-17T10:01:30.411Z,55.55
2022-09-17T10:02:30.377Z,55.57
2022-09-17T10:03:35.308Z,55.44
2022-09-17T10:04:30.298Z,56.26
2022-09-17T10:05:30.269Z,56.28
2022-09-17T10:06:30.379Z,56.36
2022-09-17T10:07:30.238Z,56.28
2022-09-17T10:08:30.234Z,56.18
2022-09-17T10:09:30.214Z,56.69
2022-09-17T10:10:30.206Z,56.89
2022-09-17T10:11:30.265Z,57.40
2022-09-17T10:12:30.183Z,56.79
2022-09-17T10:13:30.177Z,56.61
2022-09-17T10:14:35.186Z,56.01
2022-09-17T10:15:30.147Z,56.01
2022-09-17T10:16:30.247Z,56.21
2022-09-17T10:17:30.156Z,55.63
2022-09-17T10:18:30.122Z,55.40
2022-09-17T10:19:30.102Z,56.23
2022-09-17T10:20:30.097Z,56.74
2022-09-17T10:21:30.090Z,56.82
2022-09-17T10:22:30.194Z,56.51
2022-09-17T10:23:30.062Z,56.92
2022-09-17T10:24:30.054Z,57.42
2022-09-17T10:25:35.069Z,57.53
2022-09-17T10:26:30.078Z,56.82
2022-09-17T10:27:30.065Z,57.12
2022-09-17T10:28:30.025Z,57.50
2022-09-17T10:29:29.989Z,56.69
2022-09-17T10:30:29.984Z,56.66
2022-09-17T10:31:30.041Z,56.43
2022-09-17T10:32:29.968Z,55.22
2022-09-17T10:33:29.948Z,55.52
2022-09-17T10:34:29.940Z,54.89
2022-09-17T10:35:29.969Z,54.89
2022-09-17T10:36:37.930Z,53.07
2022-09-17T10:37:29.905Z,52.72
2022-09-17T10:38:30.151Z,52.51
2022-09-17T10:39:29.905Z,53.12
2022-09-17T10:40:29.982Z,53.02
2022-09-17T10:41:29.861Z,52.69
2022-09-17T10:42:29.858Z,52.92
2022-09-17T10:43:29.830Z,53.02
2022-09-17T10:44:29.840Z,52.59
2022-09-17T10:45:29.810Z,52.92
2022-09-17T10:46:29.861Z,52.61
2022-09-17T10:47:34.861Z,52.72
2022-09-17T10:48:29.781Z,53.22
2022-09-17T10:49:29.768Z,53.83
2022-09-17T10:50:29.759Z,54.13
2022-09-17T10:51:29.750Z,53.63
2022-09-17T10:52:29.739Z,52.51
2022-09-17T10:53:29.721Z,53.02
2022-09-17T10:54:29.826Z,52.34
2022-09-17T10:55:29.707Z,52.54
2022-09-17T10:56:29.686Z,52.74
2022-09-17T10:57:29.682Z,53.05
2022-09-17T10:58:37.176Z,52.64
2022-09-17T10:59:30.687Z,52.64
2022-09-17T11:00:29.647Z,53.25
2022-09-17T11:01:29.693Z,53.45
2022-09-17T11:02:29.821Z,52.94
2022-09-17T11:03:29.608Z,51.43
2022-09-17T11:04:29.602Z,51.63
2022-09-17T11:05:29.583Z,51.55
2022-09-17T11:06:29.578Z,51.63
2022-09-17T11:07:29.573Z,51.53
2022-09-17T11:08:29.556Z,51.83
2022-09-17T11:09:34.679Z,51.83
2022-09-17T11:10:29.530Z,53.47
2022-09-17T11:11:29.515Z,53.58
2022-09-17T11:12:29.524Z,54.49
2022-09-17T11:13:29.501Z,55.40
2022-09-17T11:14:29.509Z,55.60
2022-09-17T11:15:29.488Z,55.40
2022-09-17T11:16:29.613Z,55.29
2022-09-17T11:17:29.449Z,55.90
2022-09-17T11:18:29.448Z,54.38
2022-09-17T11:19:29.434Z,54.49
2022-09-17T11:20:34.439Z,55.49
2022-09-17T11:21:29.401Z,55.29
2022-09-17T11:22:29.390Z,53.78
2022-09-17T11:23:29.409Z,53.58
2022-09-17T11:24:29.373Z,53.58
2022-09-17T11:25:29.490Z,54.58
2022-09-17T11:26:29.344Z,54.99
2022-09-17T11:27:29.335Z,55.22
2022-09-17T11:28:29.337Z,54.71
2022-09-17T11:29:29.312Z,54.89
2022-09-17T11:30:29.313Z,54.61
2022-09-17T11:31:34.416Z,55.02
2022-09-17T11:32:29.371Z,54.82
2022-09-17T11:33:29.267Z,54.51
2022-09-17T11:34:29.261Z,55.55
2022-09-17T11:35:29.244Z,55.44
2022-09-17T11:36:29.244Z,55.73
2022-09-17T11:37:29.239Z,55.32
2022-09-17T11:38:29.210Z,55.32
2022-09-17T11:39:29.209Z,55.11
2022-09-17T11:40:29.334Z,54.82
2022-09-17T11:41:29.293Z,55.85
2022-09-17T11:42:34.198Z,56.02
2022-09-17T11:43:29.196Z,55.93
2022-09-17T11:44:29.372Z,54.71
2022-09-17T11:45:29.132Z,55.42
2022-09-17T11:46:29.174Z,55.42
2022-09-17T11:47:29.122Z,55.73
2022-09-17T11:48:29.096Z,56.13
2022-09-17T11:49:29.094Z,55.44
2022-09-17T11:50:29.084Z,55.35
2022-09-17T11:51:29.081Z,56.66
2022-09-17T11:52:29.050Z,55.35
2022-09-17T11:53:34.074Z,54.84
2022-09-17T11:54:29.028Z,55.35
2022-09-17T11:55:29.020Z,55.44
2022-09-17T11:56:29.007Z,55.65
2022-09-17T11:57:29.141Z,55.15
2022-09-17T11:58:29.017Z,54.84
2022-09-17T11:59:28.975Z,55.44
2022-09-17T12:00:28.958Z,55.73
2022-09-17T12:01:28.951Z,54.74
2022-09-17T12:02:29.026Z,55.42
2022-09-17T12:03:29.030Z,54.71
2022-09-17T12:04:33.940Z,55.52
2022-09-17T12:05:28.925Z,56.23
2022-09-17T12:06:28.906Z,55.82
2022-09-17T12:07:28.886Z,56.43
2022-09-17T12:08:28.879Z,56.33
2022-09-17T12:09:28.861Z,56.94
2022-09-17T12:10:28.854Z,56.53
2022-09-17T12:11:28.871Z,56.63
2022-09-17T12:12:50.667Z,56.43
2022-09-17T12:13:29.943Z,57.07
2022-09-17T12:14:28.806Z,56.76
2022-09-17T12:15:33.817Z,57.67
2022-09-17T12:16:28.851Z,57.54
2022-09-17T12:17:28.831Z,56.63
2022-09-17T12:18:32.150Z,56.13
2022-09-17T12:19:28.744Z,56.43
2022-09-17T12:20:28.734Z,56.33
2022-09-17T12:21:28.728Z,56.43
2022-09-17T12:22:28.733Z,55.80
2022-09-17T12:23:28.715Z,56.61
2022-09-17T12:24:28.690Z,55.87
2022-09-17T12:25:28.677Z,54.13
2022-09-17T12:26:33.689Z,52.67
2022-09-17T12:27:28.660Z,51.00
2022-09-17T12:28:28.663Z,50.35
2022-09-17T12:29:28.770Z,49.55
2022-09-17T12:30:28.619Z,48.21
2022-09-17T12:31:28.674Z,47.77
2022-09-17T12:32:28.599Z,46.31
2022-09-17T12:33:28.610Z,45.77
2022-09-17T12:34:28.585Z,44.74
2022-09-17T12:35:52.725Z,43.40
2022-09-17T12:36:29.549Z,42.97
2022-09-17T12:37:33.569Z,42.16
2022-09-17T12:38:28.546Z,42.97
2022-09-17T12:39:28.519Z,42.25
2022-09-17T12:40:28.568Z,43.32
2022-09-17T12:41:28.502Z,43.42
2022-09-17T12:42:28.484Z,42.05
2022-09-17T12:43:28.493Z,41.39
2022-09-17T12:44:28.474Z,41.31
2022-09-17T12:45:28.568Z,41.83
2022-09-17T12:46:28.502Z,43.62
2022-09-17T12:47:28.428Z,44.16
2022-09-17T12:48:33.449Z,46.29
2022-09-17T12:49:28.413Z,46.76
2022-09-17T12:50:28.391Z,47.81
2022-09-17T12:51:28.382Z,49.37
2022-09-17T12:52:28.374Z,50.32
2022-09-17T12:53:28.360Z,51.53
2022-09-17T12:54:28.364Z,52.06
2022-09-17T12:55:28.359Z,52.89
2022-09-17T12:56:28.328Z,53.90
2022-09-17T12:57:28.316Z,53.93
2022-09-17T12:58:28.303Z,52.72
2022-09-17T12:59:33.333Z,53.20
2022-09-17T13:00:28.333Z,53.09
2022-09-17T13:01:28.682Z,53.72
2022-09-17T13:02:28.255Z,53.32
2022-09-17T13:03:28.252Z,54.61
2022-09-17T13:04:49.853Z,53.32
2022-09-17T13:05:32.752Z,53.63
2022-09-17T13:06:29.307Z,53.42
2022-09-17T13:07:28.201Z,52.74
2022-09-17T13:08:28.190Z,53.38
2022-09-17T13:09:28.241Z,53.78
2022-09-17T13:10:33.200Z,54.46
2022-09-17T13:11:28.160Z,53.75
2022-09-17T13:12:28.268Z,54.66
2022-09-17T13:13:28.137Z,53.83
2022-09-17T13:14:28.132Z,53.52
2022-09-17T13:15:28.109Z,52.59
2022-09-17T13:16:28.266Z,50.78
2022-09-17T13:17:28.215Z,51.58
2022-09-17T13:18:28.177Z,50.78
2022-09-17T13:19:28.669Z,51.07
2022-09-17T13:20:28.050Z,51.89
2022-09-17T13:21:33.063Z,51.18
2022-09-17T13:22:28.031Z,51.66
2022-09-17T13:23:28.025Z,51.45
2022-09-17T13:24:28.049Z,50.67
2022-09-17T13:25:28.003Z,51.38
2022-09-17T13:26:27.984Z,52.26
2022-09-17T13:27:27.981Z,51.25
2022-09-17T13:28:27.987Z,51.15
2022-09-17T13:29:27.966Z,51.66
2022-09-17T13:30:27.942Z,50.95
2022-09-17T13:31:27.979Z,51.66
2022-09-17T13:32:33.061Z,51.15
2022-09-17T13:33:27.909Z,50.65
2022-09-17T13:34:27.904Z,52.04
2022-09-17T13:35:27.911Z,51.33
2022-09-17T13:36:27.873Z,51.03
2022-09-17T13:37:27.863Z,50.32
2022-09-17T13:38:27.847Z,50.52
2022-09-17T13:39:27.861Z,50.42
2022-09-17T13:40:27.987Z,50.73
2022-09-17T13:41:27.822Z,50.32
2022-09-17T13:42:27.817Z,50.95
2022-09-17T13:43:32.823Z,50.04
2022-09-17T13:44:28.681Z,49.44
2022-09-17T13:45:27.775Z,49.54
2022-09-17T13:46:27.811Z,49.54
2022-09-17T13:47:27.748Z,50.15
2022-09-17T13:48:27.854Z,50.35
2022-09-17T13:49:27.738Z,50.32
2022-09-17T13:50:27.722Z,49.31
2022-09-17T13:51:27.708Z,49.92
2022-09-17T13:52:27.691Z,48.81
2022-09-17T13:53:27.682Z,49.11
2022-09-17T13:54:32.702Z,48.79
2022-09-17T13:55:27.687Z,48.58
2022-09-17T13:56:27.646Z,48.61
2022-09-17T13:57:27.650Z,49.11
2022-09-17T13:58:27.631Z,48.61
2022-09-17T13:59:27.634Z,49.01
2022-09-17T14:00:27.641Z,49.74
2022-09-17T14:01:27.618Z,49.54
2022-09-17T14:02:30.796Z,49.44
2022-09-17T14:03:27.572Z,50.24
2022-09-17T14:04:27.687Z,50.24
2022-09-17T14:05:32.569Z,50.35
2022-09-17T14:06:27.535Z,51.05
2022-09-17T14:07:27.528Z,51.35
2022-09-17T14:08:27.524Z,52.67
2022-09-17T14:09:27.518Z,51.43
2022-09-17T14:10:27.492Z,51.56
2022-09-17T14:11:27.480Z,51.53
2022-09-17T14:12:27.467Z,51.35
2022-09-17T14:13:27.469Z,51.15
2022-09-17T14:14:27.465Z,52.06
2022-09-17T14:15:27.434Z,51.86
2022-09-17T14:16:32.488Z,52.06
2022-09-17T14:17:27.424Z,51.25
2022-09-17T14:18:27.403Z,50.35
2022-09-17T14:19:27.401Z,49.74
2022-09-17T14:20:27.500Z,49.96
2022-09-17T14:21:27.368Z,50.85
2022-09-17T14:22:27.353Z,50.27
2022-09-17T14:23:27.349Z,50.67
2022-09-17T14:24:27.342Z,50.65
2022-09-17T14:25:27.348Z,49.74
2022-09-17T14:26:27.308Z,47.92
2022-09-17T14:27:32.323Z,47.74
2022-09-17T14:28:27.286Z,47.92
2022-09-17T14:29:27.289Z,48.55
2022-09-17T14:30:27.269Z,48.45
2022-09-17T14:31:27.272Z,48.85
2022-09-17T14:32:27.245Z,48.55
2022-09-17T14:33:27.241Z,48.96
2022-09-17T14:34:27.219Z,48.25
2022-09-17T14:35:27.219Z,48.85
2022-09-17T14:36:27.324Z,49.05
2022-09-17T14:37:27.187Z,48.65
2022-09-17T14:38:32.195Z,49.16
2022-09-17T14:39:27.163Z,48.83
2022-09-17T14:40:27.187Z,48.73
2022-09-17T14:41:27.142Z,48.75
2022-09-17T14:42:27.139Z,49.56
2022-09-17T14:43:27.120Z,49.56
2022-09-17T14:44:27.110Z,49.26
2022-09-17T14:45:27.113Z,49.46
2022-09-17T14:46:27.137Z,49.26
2022-09-17T14:47:27.080Z,49.76
2022-09-17T14:48:27.060Z,49.26
2022-09-17T14:49:32.075Z,49.08
2022-09-17T14:50:27.050Z,48.88
2022-09-17T14:51:27.031Z,48.78
2022-09-17T14:52:27.138Z,48.78
2022-09-17T14:53:27.012Z,48.47
2022-09-17T14:54:27.012Z,47.77
2022-09-17T14:55:26.997Z,48.39
2022-09-17T14:56:26.969Z,48.80
2022-09-17T14:57:26.973Z,49.08
2022-09-17T14:58:26.950Z,49.01
2022-09-17T14:59:26.949Z,49.61
2022-09-17T15:00:32.050Z,50.12
2022-09-17T15:01:26.974Z,49.30
2022-09-17T15:02:26.999Z,49.30
2022-09-17T15:03:26.891Z,50.21
2022-09-17T15:04:26.887Z,50.12
2022-09-17T15:05:26.889Z,50.70
2022-09-17T15:06:26.856Z,50.42
2022-09-17T15:07:26.845Z,50.72
2022-09-17T15:08:26.950Z,50.42
2022-09-17T15:09:26.916Z,50.62
2022-09-17T15:10:26.823Z,50.21
2022-09-17T15:11:31.823Z,51.32
2022-09-17T15:12:26.801Z,51.03
2022-09-17T15:13:26.781Z,50.92
2022-09-17T15:14:26.777Z,51.03
2022-09-17T15:15:26.767Z,52.14
2022-09-17T15:16:26.783Z,51.65
2022-09-17T15:17:26.749Z,52.84
2022-09-17T15:18:26.723Z,53.27
2022-09-17T15:19:26.717Z,52.97
2022-09-17T15:20:26.696Z,53.17
2022-09-17T15:21:26.701Z,53.07
2022-09-17T15:22:31.698Z,53.47
2022-09-17T15:23:26.665Z,53.47
2022-09-17T15:24:26.768Z,53.38
2022-09-17T15:25:26.688Z,53.58
2022-09-17T15:26:26.638Z,53.78
2022-09-17T15:27:26.631Z,53.78
2022-09-17T15:28:26.609Z,53.47
2022-09-17T15:29:26.595Z,53.78
2022-09-17T15:30:26.612Z,54.28
2022-09-17T15:31:26.628Z,54.58
2022-09-17T15:32:26.566Z,55.32
2022-09-17T15:33:31.576Z,56.53
2022-09-17T15:34:26.537Z,56.02
2022-09-17T15:35:26.528Z,56.53
2022-09-17T15:36:26.667Z,56.96
2022-09-17T15:37:26.848Z,57.37
2022-09-17T15:38:26.502Z,57.07
2022-09-17T15:39:26.481Z,57.67
2022-09-17T15:40:26.654Z,58.65
2022-09-17T15:41:26.550Z,57.47
2022-09-17T15:42:26.450Z,58.28
2022-09-17T15:43:26.490Z,57.50
2022-09-17T15:44:32.057Z,58.48
2022-09-17T15:45:26.411Z,58.51
2022-09-17T15:46:26.479Z,58.81
2022-09-17T15:47:26.440Z,59.09
2022-09-17T15:48:26.389Z,59.39
2022-09-17T15:49:26.382Z,59.22
2022-09-17T15:50:26.397Z,59.29
2022-09-17T15:51:26.361Z,58.89
2022-09-17T15:52:26.358Z,59.29
2022-09-17T15:53:26.342Z,59.56
2022-09-17T15:54:26.314Z,59.27
2022-09-17T15:55:31.435Z,58.86
2022-09-17T15:56:26.324Z,57.44
2022-09-17T15:57:26.278Z,57.44
2022-09-17T15:58:26.266Z,56.84
2022-09-17T15:59:26.258Z,57.65
2022-09-17T16:00:26.263Z,57.14
2022-09-17T16:01:26.306Z,57.78
2022-09-17T16:02:26.479Z,57.14
2022-09-17T16:03:26.209Z,56.94
2022-09-17T16:04:26.203Z,56.84
2022-09-17T16:05:26.185Z,56.33
2022-09-17T16:06:31.244Z,56.56
2022-09-17T16:07:26.165Z,56.05
2022-09-17T16:08:26.162Z,56.05
2022-09-17T16:09:26.327Z,56.66
2022-09-17T16:10:26.129Z,56.26
2022-09-17T16:11:26.251Z,56.76
2022-09-17T16:12:26.129Z,56.76
2022-09-17T16:13:28.642Z,56.36
2022-09-17T16:14:26.085Z,56.59
2022-09-17T16:15:26.078Z,56.48
2022-09-17T16:16:26.164Z,57.40
2022-09-17T16:17:31.075Z,57.29
2022-09-17T16:18:26.087Z,56.99
2022-09-17T16:19:26.034Z,56.48
2022-09-17T16:20:26.022Z,56.79
2022-09-17T16:21:26.046Z,57.22
2022-09-17T16:22:26.004Z,57.62
2022-09-17T16:23:25.982Z,57.12
2022-09-17T16:24:25.972Z,57.62
2022-09-17T16:25:25.962Z,58.03
2022-09-17T16:26:25.959Z,59.55
2022-09-17T16:27:26.068Z,59.25
2022-09-17T16:28:30.960Z,60.08
2022-09-17T16:29:25.920Z,60.86
2022-09-17T16:30:25.903Z,60.59
2022-09-17T16:31:25.976Z,60.59
2022-09-17T16:32:25.890Z,59.78
2022-09-17T16:33:25.870Z,61.00
2022-09-17T16:34:25.889Z,60.66
2022-09-17T16:35:25.845Z,60.86
2022-09-17T16:36:25.839Z,61.71
2022-09-17T16:37:25.847Z,63.93
2022-09-17T16:38:25.812Z,66.70
2022-09-17T16:39:30.881Z,67.72
2022-09-17T16:40:25.866Z,68.23
2022-09-17T16:41:25.777Z,69.64
2022-09-17T16:42:25.779Z,69.27
2022-09-17T16:43:25.869Z,70.21
2022-09-17T16:44:25.745Z,71.73
2022-09-17T16:45:29.028Z,70.76
2022-09-17T16:46:25.766Z,72.58
2022-09-17T16:47:25.720Z,72.28
2022-09-17T16:48:25.698Z,72.41
2022-09-17T16:49:25.688Z,72.41
2022-09-17T16:50:30.702Z,72.11
2022-09-17T16:51:25.662Z,73.67
2022-09-17T16:52:25.667Z,72.55